createdAt,value
2017-07-26T00:00:02.005Z,1001.82
2017-07-26T00:00:11.999Z,1001.85
2017-07-26T00:00:21.660Z,1001.83
2017-07-26T00:00:31.651Z,1001.8
2017-07-26T00:00:41.982Z,1001.82
2017-07-26T00:00:51.645Z,1001.85
2017-07-26T00:01:01.975Z,1001.8
2017-07-26T00:01:11.969Z,1001.81
2017-07-26T00:01:21.295Z,1001.83
2017-07-26T00:01:31.962Z,1001.82
2017-07-26T00:01:41.955Z,1001.81
2017-07-26T00:01:51.958Z,1001.86
2017-07-26T00:02:01.942Z,1001.83
2017-07-26T00:02:11.936Z,1001.79
2017-07-26T00:02:21.595Z,1001.84
2017-07-26T00:02:31.591Z,1001.8
2017-07-26T00:02:41.924Z,1001.8
2017-07-26T00:02:51.916Z,1001.8
2017-07-26T00:03:01.913Z,1001.79
2017-07-26T00:03:11.901Z,1001.8
2017-07-26T00:03:21.227Z,1001.8
2017-07-26T00:03:31.922Z,1001.79
2017-07-26T00:03:41.891Z,1001.82
2017-07-26T00:03:51.884Z,1001.77
2017-07-26T00:04:01.878Z,1001.83
2017-07-26T00:04:11.543Z,1001.83
2017-07-26T00:04:21.533Z,1001.82
2017-07-26T00:04:31.860Z,1001.8
2017-07-26T00:04:41.858Z,1001.82
2017-07-26T00:04:51.853Z,1001.79
2017-07-26T00:05:01.852Z,1001.79
2017-07-26T00:05:11.844Z,1001.78
2017-07-26T00:05:21.505Z,1001.82
2017-07-26T00:05:31.837Z,1001.77
2017-07-26T00:05:41.830Z,1001.81
2017-07-26T00:05:51.824Z,1001.79
2017-07-26T00:06:01.820Z,1001.79
2017-07-26T00:06:11.816Z,1001.83
2017-07-26T00:06:21.807Z,1001.82
2017-07-26T00:06:31.806Z,1001.78
2017-07-26T00:06:41.802Z,1001.76
2017-07-26T00:06:51.793Z,1001.82
2017-07-26T00:07:01.455Z,1001.78
2017-07-26T00:07:11.779Z,1001.78
2017-07-26T00:07:21.448Z,1001.81
2017-07-26T00:07:31.771Z,1001.79
2017-07-26T00:07:41.767Z,1001.77
2017-07-26T00:07:51.762Z,1001.83
2017-07-26T00:08:01.754Z,1001.74
2017-07-26T00:08:11.752Z,1001.82
2017-07-26T00:08:21.075Z,1001.79
2017-07-26T00:08:31.753Z,1001.75
2017-07-26T00:08:41.733Z,1001.79
2017-07-26T00:08:51.733Z,1001.75
2017-07-26T00:09:01.391Z,1001.74
2017-07-26T00:09:11.724Z,1001.78
2017-07-26T00:09:21.717Z,1001.81
2017-07-26T00:09:31.708Z,1001.77
2017-07-26T00:09:41.704Z,1001.81
2017-07-26T00:09:51.373Z,1001.8
2017-07-26T00:10:01.356Z,1001.77
2017-07-26T00:10:11.690Z,1001.7
2017-07-26T00:10:21.349Z,1001.82
2017-07-26T00:10:31.670Z,1001.73
2017-07-26T00:10:41.669Z,1001.79
2017-07-26T00:10:51.667Z,1001.79
2017-07-26T00:11:01.665Z,1001.79
2017-07-26T00:11:11.659Z,1001.75
2017-07-26T00:11:21.318Z,1001.75
2017-07-26T00:11:31.644Z,1001.79
2017-07-26T00:11:41.641Z,1001.8
2017-07-26T00:11:51.302Z,1001.8
2017-07-26T00:12:01.645Z,1001.8
2017-07-26T00:12:11.630Z,1001.79
2017-07-26T00:12:21.620Z,1001.78
2017-07-26T00:12:31.614Z,1001.83
2017-07-26T00:12:41.274Z,1001.82
2017-07-26T00:12:51.605Z,1001.83
2017-07-26T00:13:01.602Z,1001.86
2017-07-26T00:13:11.258Z,1001.8
2017-07-26T00:13:21.252Z,1001.86
2017-07-26T00:13:31.584Z,1001.81
2017-07-26T00:13:41.585Z,1001.86
2017-07-26T00:13:51.581Z,1001.89
2017-07-26T00:14:01.235Z,1001.84
2017-07-26T00:14:11.564Z,1001.83
2017-07-26T00:14:21.562Z,1001.85
2017-07-26T00:14:31.557Z,1001.82
2017-07-26T00:14:41.547Z,1001.87
2017-07-26T00:14:51.542Z,1001.85
2017-07-26T00:15:01.539Z,1001.85
2017-07-26T00:15:11.531Z,1001.86
2017-07-26T00:15:21.189Z,1001.82
2017-07-26T00:15:31.524Z,1001.89
2017-07-26T00:15:41.516Z,1001.83
2017-07-26T00:15:51.513Z,1001.88
2017-07-26T00:16:01.509Z,1001.9
2017-07-26T00:16:11.503Z,1001.88
2017-07-26T00:16:21.498Z,1001.89
2017-07-26T00:16:31.492Z,1001.9
2017-07-26T00:16:41.507Z,1001.87
2017-07-26T00:16:51.479Z,1001.91
2017-07-26T00:17:01.475Z,1001.87
2017-07-26T00:17:11.471Z,1001.89
2017-07-26T00:17:21.465Z,1001.91
2017-07-26T00:17:31.461Z,1001.93
2017-07-26T00:17:41.459Z,1001.91
2017-07-26T00:17:51.449Z,1001.89
2017-07-26T00:18:01.112Z,1001.9
2017-07-26T00:18:11.436Z,1001.9
2017-07-26T00:18:21.442Z,1001.94
2017-07-26T00:18:31.100Z,1001.92
2017-07-26T00:18:41.425Z,1001.92
2017-07-26T00:18:51.418Z,1001.92
2017-07-26T00:19:01.076Z,1001.92
2017-07-26T00:19:11.408Z,1001.96
2017-07-26T00:19:21.070Z,1001.93
2017-07-26T00:19:31.397Z,1001.92
2017-07-26T00:19:41.396Z,1001.93
2017-07-26T00:19:51.058Z,1001.92
2017-07-26T00:20:01.385Z,1001.95
2017-07-26T00:20:11.734Z,1001.91
2017-07-26T00:20:21.039Z,1001.96
2017-07-26T00:20:31.368Z,1001.89
2017-07-26T00:20:41.368Z,1001.98
2017-07-26T00:20:51.021Z,1001.94
2017-07-26T00:21:01.015Z,1001.89
2017-07-26T00:21:11.347Z,1001.92
2017-07-26T00:21:21.344Z,1001.93
2017-07-26T00:21:31.007Z,1001.93
2017-07-26T00:21:41.333Z,1001.94
2017-07-26T00:21:50.989Z,1001.89
2017-07-26T00:22:01.326Z,1001.93
2017-07-26T00:22:11.323Z,1001.98
2017-07-26T00:22:21.312Z,1001.96
2017-07-26T00:22:31.304Z,1001.89
2017-07-26T00:22:41.301Z,1001.96
2017-07-26T00:22:51.292Z,1001.95
2017-07-26T00:23:00.957Z,1001.98
2017-07-26T00:23:11.287Z,1001.95
2017-07-26T00:23:21.281Z,1001.92
2017-07-26T00:23:30.937Z,1001.94
2017-07-26T00:23:41.270Z,1001.96
2017-07-26T00:23:51.259Z,1001.93
2017-07-26T00:24:00.924Z,1001.87
2017-07-26T00:24:11.258Z,1001.97
2017-07-26T00:24:20.907Z,1001.91
2017-07-26T00:24:31.245Z,1001.91
2017-07-26T00:24:41.235Z,1001.87
2017-07-26T00:24:51.233Z,1001.92
2017-07-26T00:25:01.229Z,1001.93
2017-07-26T00:25:11.222Z,1001.9
2017-07-26T00:25:20.882Z,1001.97
2017-07-26T00:25:31.210Z,1001.88
2017-07-26T00:25:41.208Z,1001.97
2017-07-26T00:25:51.205Z,1001.93
2017-07-26T00:26:01.203Z,1001.98
2017-07-26T00:26:10.853Z,1001.95
2017-07-26T00:26:20.854Z,1001.94
2017-07-26T00:26:31.186Z,1001.96
2017-07-26T00:26:41.181Z,1001.94
2017-07-26T00:26:51.169Z,1001.92
2017-07-26T00:27:01.162Z,1001.97
2017-07-26T00:27:11.161Z,1001.92
2017-07-26T00:27:20.823Z,1001.88
2017-07-26T00:27:31.154Z,1001.94
2017-07-26T00:27:40.811Z,1001.91
2017-07-26T00:27:51.139Z,1001.93
2017-07-26T00:28:00.798Z,1001.98
2017-07-26T00:28:11.130Z,1001.93
2017-07-26T00:28:21.123Z,1001.91
2017-07-26T00:28:31.119Z,1001.98
2017-07-26T00:28:40.779Z,1001.92
2017-07-26T00:28:51.102Z,1001.95
2017-07-26T00:29:00.770Z,1001.99
2017-07-26T00:29:10.427Z,1001.96
2017-07-26T00:29:20.755Z,1001.92
2017-07-26T00:29:31.083Z,1001.99
2017-07-26T00:29:41.081Z,1001.99
2017-07-26T00:29:51.073Z,1001.99
2017-07-26T00:30:01.076Z,1001.97
2017-07-26T00:30:11.069Z,1001.99
2017-07-26T00:30:21.061Z,1001.93
2017-07-26T00:30:31.059Z,1001.97
2017-07-26T00:30:41.053Z,1002
2017-07-26T00:30:51.049Z,1001.99
2017-07-26T00:31:01.037Z,1001.96
2017-07-26T00:31:11.037Z,1001.99
2017-07-26T00:31:20.695Z,1001.96
2017-07-26T00:31:30.688Z,1001.97
2017-07-26T00:31:41.025Z,1001.97
2017-07-26T00:31:51.017Z,1002.03
2017-07-26T00:32:00.340Z,1002.01
2017-07-26T00:32:11.010Z,1001.99
2017-07-26T00:32:21.000Z,1002.05
2017-07-26T00:32:30.991Z,1002
2017-07-26T00:32:40.988Z,1002
2017-07-26T00:32:50.984Z,1002.03
2017-07-26T00:33:00.650Z,1001.99
2017-07-26T00:33:10.976Z,1002
2017-07-26T00:33:20.964Z,1002.05
2017-07-26T00:33:30.967Z,1002.02
2017-07-26T00:33:40.956Z,1001.98
2017-07-26T00:33:50.950Z,1002.01
2017-07-26T00:34:00.968Z,1002.01
2017-07-26T00:34:10.275Z,1002.01
2017-07-26T00:34:20.939Z,1001.99
2017-07-26T00:34:30.939Z,1002.01
2017-07-26T00:34:40.927Z,1001.95
2017-07-26T00:34:50.921Z,1002.02
2017-07-26T00:35:00.915Z,1002
2017-07-26T00:35:10.909Z,1002.03
2017-07-26T00:35:20.913Z,1002.02
2017-07-26T00:35:30.902Z,1002.02
2017-07-26T00:35:40.891Z,1002.03
2017-07-26T00:35:50.895Z,1002.02
2017-07-26T00:36:00.551Z,1002.01
2017-07-26T00:36:10.880Z,1001.97
2017-07-26T00:36:20.876Z,1002
2017-07-26T00:36:30.878Z,1002
2017-07-26T00:36:40.866Z,1001.99
2017-07-26T00:36:50.859Z,1001.98
2017-07-26T00:37:00.544Z,1002.04
2017-07-26T00:37:10.849Z,1002.02
2017-07-26T00:37:20.848Z,1002
2017-07-26T00:37:30.841Z,1002
2017-07-26T00:37:40.834Z,1002.02
2017-07-26T00:37:50.825Z,1002
2017-07-26T00:38:00.825Z,1002.01
2017-07-26T00:38:10.815Z,1002
2017-07-26T00:38:20.821Z,1002.01
2017-07-26T00:38:30.813Z,1001.97
2017-07-26T00:38:40.467Z,1001.98
2017-07-26T00:38:50.456Z,1001.97
2017-07-26T00:39:00.458Z,1002.02
2017-07-26T00:39:10.805Z,1002
2017-07-26T00:39:20.785Z,1001.97
2017-07-26T00:39:30.778Z,1002
2017-07-26T00:39:40.801Z,1002.01
2017-07-26T00:39:50.767Z,1002.03
2017-07-26T00:40:00.769Z,1002.01
2017-07-26T00:40:10.759Z,1002.01
2017-07-26T00:40:20.752Z,1002.04
2017-07-26T00:40:30.411Z,1002.02
2017-07-26T00:40:40.743Z,1002
2017-07-26T00:40:50.737Z,1002.01
2017-07-26T00:41:00.730Z,1001.99
2017-07-26T00:41:10.721Z,1001.98
2017-07-26T00:41:20.723Z,1002.03
2017-07-26T00:41:30.051Z,1002.01
2017-07-26T00:41:40.712Z,1002.02
2017-07-26T00:41:50.701Z,1001.98
2017-07-26T00:42:00.700Z,1001.95
2017-07-26T00:42:10.691Z,1002
2017-07-26T00:42:20.687Z,1002.08
2017-07-26T00:42:30.348Z,1002.07
2017-07-26T00:42:40.680Z,1001.99
2017-07-26T00:42:50.671Z,1002.02
2017-07-26T00:43:00.669Z,1002.04
2017-07-26T00:43:10.666Z,1002.06
2017-07-26T00:43:20.655Z,1002.06
2017-07-26T00:43:30.652Z,1002.06
2017-07-26T00:43:40.652Z,1002.07
2017-07-26T00:43:50.641Z,1002.03
2017-07-26T00:44:00.643Z,1002.03
2017-07-26T00:44:10.640Z,1002.05
2017-07-26T00:44:20.627Z,1002.07
2017-07-26T00:44:30.283Z,1002.02
2017-07-26T00:44:40.618Z,1002.06
2017-07-26T00:44:50.613Z,1002.08
2017-07-26T00:45:00.613Z,1002.05
2017-07-26T00:45:10.268Z,1002.04
2017-07-26T00:45:20.598Z,1002.04
2017-07-26T00:45:30.591Z,1002.06
2017-07-26T00:45:40.583Z,1002.07
2017-07-26T00:45:50.576Z,1002.07
2017-07-26T00:46:00.577Z,1002.05
2017-07-26T00:46:10.565Z,1002.06
2017-07-26T00:46:20.563Z,1002.02
2017-07-26T00:46:30.555Z,1002.04
2017-07-26T00:46:40.555Z,1002.04
2017-07-26T00:46:50.550Z,1002.08
2017-07-26T00:47:00.549Z,1002.07
2017-07-26T00:47:10.202Z,1002.06
2017-07-26T00:47:20.533Z,1002
2017-07-26T00:47:30.532Z,1002.06
2017-07-26T00:47:40.521Z,1002.06
2017-07-26T00:47:50.519Z,1002.03
2017-07-26T00:48:00.178Z,1002.05
2017-07-26T00:48:10.526Z,1002.06
2017-07-26T00:48:20.501Z,1001.99
2017-07-26T00:48:30.494Z,1002.03
2017-07-26T00:48:40.490Z,1002.05
2017-07-26T00:48:50.488Z,1002.05
2017-07-26T00:49:00.148Z,1002.03
2017-07-26T00:49:10.140Z,1002.04
2017-07-26T00:49:20.474Z,1002.04
2017-07-26T00:49:30.470Z,1002.02
2017-07-26T00:49:40.461Z,1002.01
2017-07-26T00:49:50.459Z,1002
2017-07-26T00:50:00.453Z,1002.08
2017-07-26T00:50:10.445Z,1002.01
2017-07-26T00:50:20.108Z,1002.02
2017-07-26T00:50:30.434Z,1002.03
2017-07-26T00:50:40.428Z,1001.99
2017-07-26T00:50:50.426Z,1001.99
2017-07-26T00:51:00.417Z,1002
2017-07-26T00:51:10.086Z,1001.94
2017-07-26T00:51:20.409Z,1001.96
2017-07-26T00:51:30.405Z,1001.97
2017-07-26T00:51:40.401Z,1002.02
2017-07-26T00:51:50.396Z,1001.96
2017-07-26T00:52:00.389Z,1001.96
2017-07-26T00:52:10.382Z,1002.01
2017-07-26T00:52:20.380Z,1002
2017-07-26T00:52:30.373Z,1002.02
2017-07-26T00:52:40.370Z,1001.96
2017-07-26T00:52:50.364Z,1001.99
2017-07-26T00:53:00.359Z,1002.02
2017-07-26T00:53:10.349Z,1002.03
2017-07-26T00:53:20.344Z,1002
2017-07-26T00:53:30.346Z,1002.02
2017-07-26T00:53:40.338Z,1001.95
2017-07-26T00:53:50.330Z,1001.97
2017-07-26T00:54:00.333Z,1002.01
2017-07-26T00:54:10.322Z,1002.02
2017-07-26T00:54:20.321Z,1002.05
2017-07-26T00:54:30.312Z,1002.02
2017-07-26T00:54:40.305Z,1001.98
2017-07-26T00:54:50.297Z,1002.05
2017-07-26T00:55:00.335Z,1002.02
2017-07-26T00:55:10.296Z,1002
2017-07-26T00:55:20.287Z,1001.97
2017-07-26T00:55:30.279Z,1001.96
2017-07-26T00:55:40.272Z,1001.96
2017-07-26T00:55:50.290Z,1002.01
2017-07-26T00:56:00.265Z,1002.01
2017-07-26T00:56:10.262Z,1002.01
2017-07-26T00:56:19.919Z,1002
2017-07-26T00:56:30.251Z,1002.02
2017-07-26T00:56:39.910Z,1002.05
2017-07-26T00:56:49.904Z,1002.02
2017-07-26T00:57:00.232Z,1002
2017-07-26T00:57:10.245Z,1002.04
2017-07-26T00:57:20.226Z,1002.03
2017-07-26T00:57:30.220Z,1002.05
2017-07-26T00:57:40.221Z,1002.02
2017-07-26T00:57:50.210Z,1002.04
2017-07-26T00:58:00.203Z,1002.01
2017-07-26T00:58:09.864Z,1002.07
2017-07-26T00:58:20.195Z,1002.01
2017-07-26T00:58:30.190Z,1002.01
2017-07-26T00:58:40.185Z,1002.04
2017-07-26T00:58:50.175Z,1002.04
2017-07-26T00:59:00.168Z,1002.02
2017-07-26T00:59:10.167Z,1002.09
2017-07-26T00:59:20.161Z,1002.07
2017-07-26T00:59:30.154Z,1002
2017-07-26T00:59:40.151Z,1002.04
2017-07-26T00:59:50.157Z,1002.02
2017-07-26T01:00:00.141Z,1002.04
2017-07-26T01:00:10.131Z,1002.08
2017-07-26T01:00:20.132Z,1002.04
2017-07-26T01:00:29.786Z,1002.06
2017-07-26T01:00:40.118Z,1002.07
2017-07-26T01:00:50.117Z,1002.08
2017-07-26T01:01:00.112Z,1002.05
2017-07-26T01:01:10.101Z,1002.08
2017-07-26T01:01:20.101Z,1002.05
2017-07-26T01:01:30.096Z,1002.04
2017-07-26T01:01:40.094Z,1002.02
2017-07-26T01:01:50.084Z,1002
2017-07-26T01:01:59.749Z,1002.02
2017-07-26T01:02:10.070Z,1002.01
2017-07-26T01:02:20.078Z,1002.03
2017-07-26T01:02:30.067Z,1002.05
2017-07-26T01:02:40.061Z,1002.03
2017-07-26T01:02:50.052Z,1002.04
2017-07-26T01:03:00.043Z,1002.01
2017-07-26T01:03:10.042Z,1002.04
2017-07-26T01:03:20.043Z,1002.01
2017-07-26T01:03:30.029Z,1002.01
2017-07-26T01:03:40.029Z,1001.99
2017-07-26T01:03:50.024Z,1001.99
2017-07-26T01:04:00.015Z,1001.98
2017-07-26T01:04:09.679Z,1002.04
2017-07-26T01:04:20.008Z,1002.03
2017-07-26T01:04:30.000Z,1001.97
2017-07-26T01:04:39.993Z,1002.02
2017-07-26T01:04:49.993Z,1002.05
2017-07-26T01:04:59.982Z,1002.08
2017-07-26T01:05:09.978Z,1002.06
2017-07-26T01:05:19.973Z,1002.04
2017-07-26T01:05:29.971Z,1002
2017-07-26T01:05:39.974Z,1002
2017-07-26T01:05:49.961Z,1002
2017-07-26T01:05:59.954Z,1002.06
2017-07-26T01:06:09.950Z,1002.04
2017-07-26T01:06:19.941Z,1001.99
2017-07-26T01:06:29.940Z,1002.04
2017-07-26T01:06:39.938Z,1002.02
2017-07-26T01:06:49.925Z,1002.05
2017-07-26T01:06:59.928Z,1002
2017-07-26T01:07:09.587Z,1002.03
2017-07-26T01:07:19.926Z,1002.05
2017-07-26T01:07:29.909Z,1002.09
2017-07-26T01:07:39.903Z,1002.05
2017-07-26T01:07:49.896Z,1002.06
2017-07-26T01:07:59.888Z,1002.04
2017-07-26T01:08:09.553Z,1002.05
2017-07-26T01:08:19.550Z,1002.07
2017-07-26T01:08:29.541Z,1002.06
2017-07-26T01:08:39.872Z,1002.02
2017-07-26T01:08:49.864Z,1002.04
2017-07-26T01:08:59.863Z,1002.04
2017-07-26T01:09:09.850Z,1002.03
2017-07-26T01:09:19.515Z,1002.07
2017-07-26T01:09:29.860Z,1002.03
2017-07-26T01:09:39.840Z,1002.02
2017-07-26T01:09:49.836Z,1002
2017-07-26T01:09:59.832Z,1002.05
2017-07-26T01:10:09.823Z,1002.01
2017-07-26T01:10:19.821Z,1002.02
2017-07-26T01:10:29.812Z,1002.05
2017-07-26T01:10:39.477Z,1002.01
2017-07-26T01:10:49.807Z,1002
2017-07-26T01:10:59.801Z,1001.98
2017-07-26T01:11:09.795Z,1002.08
2017-07-26T01:11:19.791Z,1002.03
2017-07-26T01:11:29.782Z,1002.08
2017-07-26T01:11:39.779Z,1002.03
2017-07-26T01:11:49.778Z,1002
2017-07-26T01:11:59.768Z,1002.01
2017-07-26T01:12:09.433Z,1002.04
2017-07-26T01:12:19.759Z,1002.05
2017-07-26T01:12:29.751Z,1002.03
2017-07-26T01:12:39.747Z,1002
2017-07-26T01:12:49.744Z,1002.01
2017-07-26T01:12:59.738Z,1002
2017-07-26T01:13:09.734Z,1002
2017-07-26T01:13:19.732Z,1002.02
2017-07-26T01:13:29.723Z,1002.02
2017-07-26T01:13:39.719Z,1002.02
2017-07-26T01:13:49.710Z,1002.04
2017-07-26T01:13:59.707Z,1002.07
2017-07-26T01:14:09.700Z,1002.06
2017-07-26T01:14:19.695Z,1002.06
2017-07-26T01:14:29.695Z,1002.06
2017-07-26T01:14:39.688Z,1002.04
2017-07-26T01:14:49.682Z,1002.06
2017-07-26T01:14:59.333Z,1002.02
2017-07-26T01:15:09.335Z,1002.01
2017-07-26T01:15:19.666Z,1002.01
2017-07-26T01:15:29.657Z,1002.03
2017-07-26T01:15:38.980Z,1002.04
2017-07-26T01:15:49.651Z,1001.98
2017-07-26T01:15:59.647Z,1002.03
2017-07-26T01:16:09.640Z,1002.02
2017-07-26T01:16:19.637Z,1002.01
2017-07-26T01:16:29.627Z,1002.02
2017-07-26T01:16:39.626Z,1002.02
2017-07-26T01:16:49.277Z,1002.03
2017-07-26T01:16:59.616Z,1002.01
2017-07-26T01:17:09.609Z,1002.02
2017-07-26T01:17:19.601Z,1002.01
2017-07-26T01:17:29.595Z,1002.09
2017-07-26T01:17:39.261Z,1002.03
2017-07-26T01:17:49.262Z,1001.99
2017-07-26T01:17:59.579Z,1002.05
2017-07-26T01:18:09.577Z,1001.99
2017-07-26T01:18:19.569Z,1002.02
2017-07-26T01:18:29.570Z,1001.99
2017-07-26T01:18:39.559Z,1001.98
2017-07-26T01:18:49.562Z,1001.99
2017-07-26T01:18:59.548Z,1002.01
2017-07-26T01:19:09.545Z,1002
2017-07-26T01:19:19.540Z,1001.99
2017-07-26T01:19:28.867Z,1001.97
2017-07-26T01:19:39.532Z,1002
2017-07-26T01:19:49.521Z,1001.95
2017-07-26T01:19:59.518Z,1001.98
2017-07-26T01:20:09.517Z,1001.98
2017-07-26T01:20:19.176Z,1002.01
2017-07-26T01:20:29.528Z,1002
2017-07-26T01:20:39.501Z,1002
2017-07-26T01:20:49.493Z,1002
2017-07-26T01:20:59.490Z,1001.98
2017-07-26T01:21:09.482Z,1001.97
2017-07-26T01:21:19.478Z,1001.94
2017-07-26T01:21:29.469Z,1001.97
2017-07-26T01:21:39.466Z,1002.02
2017-07-26T01:21:49.465Z,1002.01
2017-07-26T01:21:59.458Z,1002
2017-07-26T01:22:09.115Z,1001.97
2017-07-26T01:22:19.447Z,1002.01
2017-07-26T01:22:29.448Z,1002.02
2017-07-26T01:22:39.438Z,1002.04
2017-07-26T01:22:49.433Z,1002.04
2017-07-26T01:22:59.435Z,1002
2017-07-26T01:23:09.083Z,1001.99
2017-07-26T01:23:19.420Z,1001.96
2017-07-26T01:23:29.412Z,1001.96
2017-07-26T01:23:39.405Z,1002.01
2017-07-26T01:23:49.397Z,1001.99
2017-07-26T01:23:59.394Z,1001.99
2017-07-26T01:24:09.390Z,1001.95
2017-07-26T01:24:19.385Z,1002.04
2017-07-26T01:24:29.376Z,1002
2017-07-26T01:24:39.375Z,1002.01
2017-07-26T01:24:49.373Z,1001.99
2017-07-26T01:24:59.364Z,1002.04
2017-07-26T01:25:09.362Z,1002.01
2017-07-26T01:25:19.360Z,1002.02
2017-07-26T01:25:29.344Z,1002.03
2017-07-26T01:25:39.350Z,1002.04
2017-07-26T01:25:49.335Z,1002.04
2017-07-26T01:25:59.001Z,1002.05
2017-07-26T01:26:09.329Z,1001.95
2017-07-26T01:26:19.319Z,1001.93
2017-07-26T01:26:29.322Z,1002.01
2017-07-26T01:26:39.307Z,1001.96
2017-07-26T01:26:49.306Z,1001.99
2017-07-26T01:26:59.323Z,1002.01
2017-07-26T01:27:09.296Z,1002.04
2017-07-26T01:27:19.296Z,1001.97
2017-07-26T01:27:28.622Z,1001.98
2017-07-26T01:27:39.287Z,1002.01
2017-07-26T01:27:49.279Z,1002.06
2017-07-26T01:27:58.942Z,1002.02
2017-07-26T01:28:09.268Z,1002.03
2017-07-26T01:28:19.263Z,1002.02
2017-07-26T01:28:28.587Z,1002.04
2017-07-26T01:28:38.922Z,1001.98
2017-07-26T01:28:49.249Z,1002.01
2017-07-26T01:28:59.242Z,1002.03
2017-07-26T01:29:09.236Z,1001.98
2017-07-26T01:29:19.232Z,1002.01
2017-07-26T01:29:29.223Z,1002.02
2017-07-26T01:29:38.887Z,1001.96
2017-07-26T01:29:48.542Z,1001.97
2017-07-26T01:29:59.209Z,1001.98
2017-07-26T01:30:09.205Z,1001.97
2017-07-26T01:30:18.862Z,1001.98
2017-07-26T01:30:29.195Z,1001.97
2017-07-26T01:30:39.190Z,1002.01
2017-07-26T01:30:49.179Z,1002.01
2017-07-26T01:30:59.183Z,1001.95
2017-07-26T01:31:09.175Z,1002
2017-07-26T01:31:18.833Z,1001.96
2017-07-26T01:31:29.160Z,1001.95
2017-07-26T01:31:39.154Z,1001.98
2017-07-26T01:31:49.155Z,1001.94
2017-07-26T01:31:59.148Z,1001.94
2017-07-26T01:32:09.136Z,1001.92
2017-07-26T01:32:19.138Z,1001.92
2017-07-26T01:32:29.131Z,1001.92
2017-07-26T01:32:38.793Z,1001.93
2017-07-26T01:32:49.123Z,1001.97
2017-07-26T01:32:59.118Z,1001.96
2017-07-26T01:33:09.108Z,1001.93
2017-07-26T01:33:19.112Z,1001.93
2017-07-26T01:33:29.100Z,1001.92
2017-07-26T01:33:39.096Z,1001.96
2017-07-26T01:33:49.091Z,1001.93
2017-07-26T01:33:59.087Z,1001.94
2017-07-26T01:34:09.082Z,1001.93
2017-07-26T01:34:19.075Z,1001.93
2017-07-26T01:34:29.075Z,1001.91
2017-07-26T01:34:39.066Z,1001.93
2017-07-26T01:34:49.061Z,1001.92
2017-07-26T01:34:59.053Z,1001.91
2017-07-26T01:35:09.051Z,1001.92
2017-07-26T01:35:19.044Z,1001.88
2017-07-26T01:35:29.038Z,1001.92
2017-07-26T01:35:39.037Z,1001.93
2017-07-26T01:35:49.025Z,1001.92
2017-07-26T01:35:59.022Z,1001.91
2017-07-26T01:36:09.017Z,1001.91
2017-07-26T01:36:19.007Z,1001.94
2017-07-26T01:36:29.007Z,1001.92
2017-07-26T01:36:39.003Z,1001.93
2017-07-26T01:36:48.996Z,1001.89
2017-07-26T01:36:58.657Z,1001.92
2017-07-26T01:37:08.987Z,1001.91
2017-07-26T01:37:18.982Z,1001.9
2017-07-26T01:37:28.979Z,1001.93
2017-07-26T01:37:38.975Z,1001.91
2017-07-26T01:37:48.634Z,1001.91
2017-07-26T01:37:58.962Z,1001.89
2017-07-26T01:38:08.955Z,1001.89
2017-07-26T01:38:18.949Z,1001.9
2017-07-26T01:38:28.945Z,1001.93
2017-07-26T01:38:38.943Z,1001.9
2017-07-26T01:38:48.595Z,1001.92
2017-07-26T01:38:58.928Z,1001.92
2017-07-26T01:39:08.589Z,1001.92
2017-07-26T01:39:18.919Z,1001.9
2017-07-26T01:39:28.579Z,1001.92
2017-07-26T01:39:38.910Z,1001.94
2017-07-26T01:39:48.908Z,1001.9
2017-07-26T01:39:58.900Z,1001.93
2017-07-26T01:40:08.558Z,1001.93
2017-07-26T01:40:18.890Z,1001.92
2017-07-26T01:40:28.881Z,1001.94
2017-07-26T01:40:38.881Z,1001.95
2017-07-26T01:40:48.872Z,1001.9
2017-07-26T01:40:58.874Z,1001.9
2017-07-26T01:41:08.864Z,1001.91
2017-07-26T01:41:18.858Z,1001.91
2017-07-26T01:41:28.860Z,1001.87
2017-07-26T01:41:38.847Z,1001.89
2017-07-26T01:41:48.839Z,1001.93
2017-07-26T01:41:58.498Z,1001.85
2017-07-26T01:42:08.835Z,1001.84
2017-07-26T01:42:18.831Z,1001.9
2017-07-26T01:42:28.822Z,1001.86
2017-07-26T01:42:38.815Z,1001.9
2017-07-26T01:42:48.809Z,1001.87
2017-07-26T01:42:58.810Z,1001.87
2017-07-26T01:43:08.801Z,1001.86
2017-07-26T01:43:18.796Z,1001.86
2017-07-26T01:43:28.791Z,1001.84
2017-07-26T01:43:38.793Z,1001.88
2017-07-26T01:43:48.784Z,1001.9
2017-07-26T01:43:58.790Z,1001.86
2017-07-26T01:44:08.768Z,1001.87
2017-07-26T01:44:18.774Z,1001.88
2017-07-26T01:44:28.766Z,1001.83
2017-07-26T01:44:38.753Z,1001.87
2017-07-26T01:44:48.748Z,1001.89
2017-07-26T01:44:58.740Z,1001.77
2017-07-26T01:45:08.409Z,1001.87
2017-07-26T01:45:18.736Z,1001.84
2017-07-26T01:45:28.730Z,1001.8
2017-07-26T01:45:38.725Z,1001.83
2017-07-26T01:45:48.716Z,1001.84
2017-07-26T01:45:58.713Z,1001.84
2017-07-26T01:46:08.704Z,1001.86
2017-07-26T01:46:18.698Z,1001.84
2017-07-26T01:46:28.695Z,1001.81
2017-07-26T01:46:38.694Z,1001.82
2017-07-26T01:46:48.690Z,1001.83
2017-07-26T01:46:58.684Z,1001.81
2017-07-26T01:47:08.675Z,1001.79
2017-07-26T01:47:18.339Z,1001.77
2017-07-26T01:47:28.662Z,1001.82
2017-07-26T01:47:38.658Z,1001.8
2017-07-26T01:47:48.657Z,1001.77
2017-07-26T01:47:58.654Z,1001.75
2017-07-26T01:48:08.642Z,1001.74
2017-07-26T01:48:18.637Z,1001.82
2017-07-26T01:48:28.633Z,1001.75
2017-07-26T01:48:38.628Z,1001.73
2017-07-26T01:48:48.623Z,1001.75
2017-07-26T01:48:58.616Z,1001.76
2017-07-26T01:49:08.616Z,1001.76
2017-07-26T01:49:18.610Z,1001.72
2017-07-26T01:49:28.605Z,1001.76
2017-07-26T01:49:38.598Z,1001.71
2017-07-26T01:49:48.592Z,1001.7
2017-07-26T01:49:57.921Z,1001.8
2017-07-26T01:50:08.247Z,1001.78
2017-07-26T01:50:18.581Z,1001.72
2017-07-26T01:50:28.570Z,1001.77
2017-07-26T01:50:37.897Z,1001.77
2017-07-26T01:50:48.574Z,1001.79
2017-07-26T01:50:58.554Z,1001.79
2017-07-26T01:51:08.217Z,1001.74
2017-07-26T01:51:18.550Z,1001.84
2017-07-26T01:51:28.541Z,1001.77
2017-07-26T01:51:38.541Z,1001.79
2017-07-26T01:51:48.530Z,1001.79
2017-07-26T01:51:58.523Z,1001.8
2017-07-26T01:52:08.518Z,1001.81
2017-07-26T01:52:18.517Z,1001.78
2017-07-26T01:52:28.525Z,1001.83
2017-07-26T01:52:38.506Z,1001.75
2017-07-26T01:52:48.496Z,1001.74
2017-07-26T01:52:58.493Z,1001.8
2017-07-26T01:53:08.490Z,1001.8
2017-07-26T01:53:18.495Z,1001.83
2017-07-26T01:53:28.481Z,1001.72
2017-07-26T01:53:38.476Z,1001.81
2017-07-26T01:53:48.470Z,1001.81
2017-07-26T01:53:58.459Z,1001.75
2017-07-26T01:54:08.455Z,1001.79
2017-07-26T01:54:18.456Z,1001.8
2017-07-26T01:54:28.446Z,1001.77
2017-07-26T01:54:38.439Z,1001.85
2017-07-26T01:54:48.438Z,1001.78
2017-07-26T01:54:58.431Z,1001.77
2017-07-26T01:55:08.094Z,1001.77
2017-07-26T01:55:18.423Z,1001.8
2017-07-26T01:55:28.418Z,1001.82
2017-07-26T01:55:38.417Z,1001.85
2017-07-26T01:55:48.409Z,1001.76
2017-07-26T01:55:58.397Z,1001.81
2017-07-26T01:56:08.397Z,1001.82
2017-07-26T01:56:18.393Z,1001.77
2017-07-26T01:56:28.388Z,1001.84
2017-07-26T01:56:38.384Z,1001.81
2017-07-26T01:56:48.373Z,1001.8
2017-07-26T01:56:58.035Z,1001.77
2017-07-26T01:57:08.366Z,1001.82
2017-07-26T01:57:18.360Z,1001.8
2017-07-26T01:57:28.357Z,1001.85
2017-07-26T01:57:38.354Z,1001.77
2017-07-26T01:57:48.342Z,1001.78
2017-07-26T01:57:58.343Z,1001.82
2017-07-26T01:58:08.338Z,1001.85
2017-07-26T01:58:18.327Z,1001.81
2017-07-26T01:58:28.331Z,1001.82
2017-07-26T01:58:38.319Z,1001.8
2017-07-26T01:58:48.319Z,1001.81
2017-07-26T01:58:58.310Z,1001.81
2017-07-26T01:59:08.298Z,1001.82
2017-07-26T01:59:18.295Z,1001.81
2017-07-26T01:59:28.296Z,1001.82
2017-07-26T01:59:38.288Z,1001.83
2017-07-26T01:59:48.278Z,1001.82
2017-07-26T01:59:58.279Z,1001.81
2017-07-26T02:00:07.936Z,1001.89
2017-07-26T02:00:18.272Z,1001.8
2017-07-26T02:00:28.261Z,1001.87
2017-07-26T02:00:38.256Z,1001.8
2017-07-26T02:00:48.253Z,1001.84
2017-07-26T02:00:58.246Z,1001.84
2017-07-26T02:01:08.250Z,1001.83
2017-07-26T02:01:18.241Z,1001.85
2017-07-26T02:01:28.229Z,1001.83
2017-07-26T02:01:38.233Z,1001.82
2017-07-26T02:01:48.222Z,1001.87